createdAt,value
2018-11-28T00:00:12.047Z,0
2018-11-28T00:01:11.765Z,0
2018-11-28T00:02:12.247Z,0
2018-11-28T00:03:12.472Z,0
2018-11-28T00:04:12.191Z,0
2018-11-28T00:05:11.915Z,0
2018-11-28T00:06:12.149Z,0
2018-11-28T00:07:11.859Z,0
2018-11-28T00:08:12.107Z,0
2018-11-28T00:09:12.078Z,0
2018-11-28T00:10:12.052Z,0
2018-11-28T00:11:12.047Z,0
2018-11-28T00:12:12.018Z,0
2018-11-28T00:13:11.711Z,0
2018-11-28T00:14:11.959Z,0
2018-11-28T00:15:11.960Z,0
2018-11-28T00:16:11.935Z,0
2018-11-28T00:17:11.873Z,0
2018-11-28T00:18:11.595Z,0
2018-11-28T00:19:11.825Z,0
2018-11-28T00:20:12.073Z,0
2018-11-28T00:21:12.039Z,0
2018-11-28T00:22:11.509Z,0
2018-11-28T00:23:11.481Z,0
2018-11-28T00:24:11.712Z,0
2018-11-28T00:25:11.948Z,0
2018-11-28T00:26:11.689Z,0
2018-11-28T00:27:11.635Z,0
2018-11-28T00:28:11.358Z,0
2018-11-28T00:29:11.852Z,0
2018-11-28T00:30:11.571Z,0
2018-11-28T00:31:11.287Z,0
2018-11-28T00:32:11.762Z,0
2018-11-28T00:33:11.499Z,0
2018-11-28T00:34:11.221Z,0
2018-11-28T00:35:11.728Z,0
2018-11-28T00:36:11.420Z,0
2018-11-28T00:37:11.647Z,0
2018-11-28T00:38:11.119Z,0
2018-11-28T00:39:11.603Z,0
2018-11-28T00:40:11.325Z,0
2018-11-28T00:41:11.564Z,0
2018-11-28T00:42:11.283Z,0
2018-11-28T00:43:11.253Z,0
2018-11-28T00:44:11.230Z,0
2018-11-28T00:45:10.710Z,0
2018-11-28T00:46:11.254Z,0
2018-11-28T00:47:11.420Z,0
2018-11-28T00:48:10.881Z,0
2018-11-28T00:49:10.853Z,0
2018-11-28T00:50:11.082Z,0
2018-11-28T00:51:11.072Z,0
2018-11-28T00:52:11.303Z,0
2018-11-28T00:53:11.015Z,0
2018-11-28T00:54:11.017Z,0
2018-11-28T00:55:10.971Z,0
2018-11-28T00:56:10.952Z,0
2018-11-28T00:57:10.668Z,0
2018-11-28T00:58:11.145Z,0
2018-11-28T00:59:10.869Z,0
2018-11-28T01:00:10.864Z,0
2018-11-28T01:01:10.564Z,0
2018-11-28T01:02:10.806Z,0
2018-11-28T01:03:10.521Z,0
2018-11-28T01:04:10.807Z,0
2018-11-28T01:05:10.503Z,0
2018-11-28T01:06:10.982Z,0
2018-11-28T01:07:10.699Z,0
2018-11-28T01:08:10.905Z,0
2018-11-28T01:09:10.632Z,0
2018-11-28T01:10:10.906Z,0
2018-11-28T01:11:10.589Z,0
2018-11-28T01:12:10.821Z,0
2018-11-28T01:13:10.288Z,0
2018-11-28T01:14:10.517Z,0
2018-11-28T01:15:10.764Z,0
2018-11-28T01:16:10.736Z,0
2018-11-28T01:17:10.724Z,0
2018-11-28T01:18:10.164Z,0
2018-11-28T01:19:10.414Z,0
2018-11-28T01:20:10.623Z,0
2018-11-28T01:21:10.687Z,0
2018-11-28T01:22:10.084Z,0
2018-11-28T01:23:10.550Z,0
2018-11-28T01:24:10.532Z,0
2018-11-28T01:25:10.266Z,0
2018-11-28T01:26:10.290Z,0
2018-11-28T01:27:09.701Z,0
2018-11-28T01:28:10.449Z,0
2018-11-28T01:29:10.419Z,0
2018-11-28T01:30:09.898Z,0
2018-11-28T01:31:10.108Z,0
2018-11-28T01:32:10.373Z,0
2018-11-28T01:33:10.083Z,0
2018-11-28T01:34:10.030Z,0
2018-11-28T01:35:10.014Z,0
2018-11-28T01:36:10.266Z,0
2018-11-28T01:37:10.241Z,0
2018-11-28T01:38:09.940Z,0
2018-11-28T01:39:09.653Z,0
2018-11-28T01:40:09.894Z,0
2018-11-28T01:41:09.866Z,0
2018-11-28T01:42:09.592Z,0
2018-11-28T01:43:09.824Z,0
2018-11-28T01:44:09.790Z,0
2018-11-28T01:45:09.773Z,0
2018-11-28T01:46:09.753Z,0
2018-11-28T01:47:09.977Z,0
2018-11-28T01:48:09.956Z,0
2018-11-28T01:49:09.425Z,0
2018-11-28T01:50:09.909Z,0
2018-11-28T01:51:09.376Z,0
2018-11-28T01:52:09.348Z,0
2018-11-28T01:53:09.845Z,0
2018-11-28T01:54:09.811Z,0
2018-11-28T01:55:09.299Z,0
2018-11-28T01:56:09.866Z,0
2018-11-28T01:57:09.219Z,0
2018-11-28T01:58:09.211Z,0
2018-11-28T01:59:09.480Z,0
2018-11-28T02:00:09.665Z,0
2018-11-28T02:01:09.391Z,0
2018-11-28T02:02:09.114Z,0
2018-11-28T02:03:09.089Z,0
2018-11-28T02:04:09.316Z,0
2018-11-28T02:05:09.051Z,0
2018-11-28T02:06:09.008Z,0
2018-11-28T02:07:08.989Z,0
2018-11-28T02:08:09.222Z,0
2018-11-28T02:09:08.949Z,0
2018-11-28T02:10:09.439Z,0
2018-11-28T02:11:09.164Z,0
2018-11-28T02:12:09.121Z,0
2018-11-28T02:13:09.090Z,0
2018-11-28T02:14:09.072Z,0
2018-11-28T02:15:09.049Z,0
2018-11-28T02:16:08.855Z,0
2018-11-28T02:17:08.998Z,0
2018-11-28T02:18:09.036Z,0
2018-11-28T02:19:08.955Z,0
2018-11-28T02:20:09.014Z,0
2018-11-28T02:21:08.975Z,0
2018-11-28T02:22:09.130Z,0
2018-11-28T02:23:09.150Z,0
2018-11-28T02:24:09.088Z,0
2018-11-28T02:25:09.066Z,0
2018-11-28T02:26:08.789Z,0
2018-11-28T02:27:08.507Z,0
2018-11-28T02:28:08.731Z,0
2018-11-28T02:29:08.461Z,0
2018-11-28T02:30:08.755Z,0
2018-11-28T02:31:08.939Z,0
2018-11-28T02:32:08.674Z,0
2018-11-28T02:33:08.623Z,0
2018-11-28T02:34:08.598Z,0
2018-11-28T02:35:08.353Z,0
2018-11-28T02:36:08.560Z,0
2018-11-28T02:37:08.347Z,0
2018-11-28T02:38:08.504Z,0
2018-11-28T02:39:08.477Z,0
2018-11-28T02:40:08.464Z,0
2018-11-28T02:41:08.444Z,0
2018-11-28T02:42:08.420Z,0
2018-11-28T02:43:08.639Z,0
2018-11-28T02:44:08.127Z,0
2018-11-28T02:45:08.360Z,0
2018-11-28T02:46:08.576Z,0
2018-11-28T02:47:08.296Z,0
2018-11-28T02:48:08.546Z,0
2018-11-28T02:49:08.491Z,0
2018-11-28T02:50:08.492Z,0
2018-11-28T02:51:08.238Z,0
2018-11-28T02:52:08.164Z,0
2018-11-28T02:53:08.152Z,0
2018-11-28T02:54:08.424Z,0
2018-11-28T02:55:07.867Z,0
2018-11-28T02:56:08.089Z,0
2018-11-28T02:57:08.311Z,0
2018-11-28T02:58:07.512Z,0
2018-11-28T02:59:08.044Z,0
2018-11-28T03:00:07.991Z,0
2018-11-28T03:01:07.690Z,0
2018-11-28T03:02:08.249Z,0
2018-11-28T03:03:08.179Z,0
2018-11-28T03:04:07.952Z,0
2018-11-28T03:05:08.183Z,0
2018-11-28T03:06:08.085Z,0
2018-11-28T03:07:07.570Z,0
2018-11-28T03:08:07.812Z,0
2018-11-28T03:09:08.094Z,0
2018-11-28T03:10:07.755Z,0
2018-11-28T03:11:07.969Z,0
2018-11-28T03:12:07.955Z,0
2018-11-28T03:13:07.937Z,0
2018-11-28T03:14:07.774Z,0
2018-11-28T03:15:07.370Z,0
2018-11-28T03:16:07.798Z,0
2018-11-28T03:17:07.583Z,0
2018-11-28T03:18:07.551Z,0
2018-11-28T03:19:07.798Z,0
2018-11-28T03:20:07.797Z,0
2018-11-28T03:21:07.483Z,0
2018-11-28T03:22:07.703Z,0
2018-11-28T03:23:07.438Z,0
2018-11-28T03:24:07.407Z,0
2018-11-28T03:25:07.380Z,0
2018-11-28T03:26:07.355Z,0
2018-11-28T03:27:07.097Z,0
2018-11-28T03:28:07.310Z,0
2018-11-28T03:29:07.028Z,0
2018-11-28T03:30:07.547Z,0
2018-11-28T03:31:07.247Z,0
2018-11-28T03:32:07.524Z,0
2018-11-28T03:33:07.581Z,0
2018-11-28T03:34:06.909Z,0
2018-11-28T03:35:07.451Z,0
2018-11-28T03:36:07.120Z,0
2018-11-28T03:37:07.112Z,0
2018-11-28T03:38:07.067Z,0
2018-11-28T03:39:06.803Z,0
2018-11-28T03:40:06.774Z,0
2018-11-28T03:41:07.011Z,0
2018-11-28T03:42:06.972Z,0
2018-11-28T03:43:06.962Z,0
2018-11-28T03:44:06.924Z,0
2018-11-28T03:45:07.179Z,0
2018-11-28T03:46:06.885Z,0
2018-11-28T03:47:07.103Z,0
2018-11-28T03:48:06.573Z,0
2018-11-28T03:49:06.566Z,0
2018-11-28T03:50:07.045Z,0
2018-11-28T03:51:07.739Z,0
2018-11-28T03:52:06.737Z,0
2018-11-28T03:53:07.019Z,0
2018-11-28T03:54:06.442Z,0
2018-11-28T03:55:06.676Z,0
2018-11-28T03:56:06.390Z,0
2018-11-28T03:57:06.881Z,0
2018-11-28T03:58:06.852Z,0
2018-11-28T03:59:06.319Z,0
2018-11-28T04:00:06.559Z,0
2018-11-28T04:01:06.532Z,0
2018-11-28T04:02:06.500Z,0
2018-11-28T04:03:06.489Z,0
2018-11-28T04:04:06.462Z,0
2018-11-28T04:05:06.426Z,0
2018-11-28T04:06:06.669Z,0
2018-11-28T04:07:06.142Z,0
2018-11-28T04:08:06.400Z,0
2018-11-28T04:09:06.403Z,0
2018-11-28T04:10:06.599Z,0
2018-11-28T04:11:06.302Z,0
2018-11-28T04:12:06.286Z,0
2018-11-28T04:13:06.250Z,0
2018-11-28T04:14:06.225Z,0
2018-11-28T04:15:06.198Z,0
2018-11-28T04:16:06.429Z,0
2018-11-28T04:17:05.889Z,0
2018-11-28T04:18:06.145Z,0
2018-11-28T04:19:06.151Z,0
2018-11-28T04:20:06.405Z,0
2018-11-28T04:21:05.878Z,0
2018-11-28T04:22:05.818Z,0
2018-11-28T04:23:06.254Z,0
2018-11-28T04:24:05.753Z,0
2018-11-28T04:25:05.735Z,0
2018-11-28T04:26:06.205Z,0
2018-11-28T04:27:05.668Z,0
2018-11-28T04:28:05.627Z,0
2018-11-28T04:29:05.603Z,0
2018-11-28T04:30:05.917Z,0
2018-11-28T04:31:05.810Z,0
2018-11-28T04:32:06.036Z,0
2018-11-28T04:33:05.523Z,0
2018-11-28T04:34:06.049Z,0
2018-11-28T04:35:05.749Z,0
2018-11-28T04:36:05.453Z,0
2018-11-28T04:37:05.416Z,0
2018-11-28T04:38:05.908Z,0
2018-11-28T04:39:05.391Z,0
2018-11-28T04:40:05.860Z,0
2018-11-28T04:41:05.330Z,0
2018-11-28T04:42:05.542Z,0
2018-11-28T04:43:05.292Z,0
2018-11-28T04:44:05.507Z,0
2018-11-28T04:45:05.471Z,0
2018-11-28T04:46:05.207Z,0
2018-11-28T04:47:05.681Z,0
2018-11-28T04:48:05.159Z,0
2018-11-28T04:49:05.393Z,0
2018-11-28T04:50:05.636Z,0
2018-11-28T04:51:05.651Z,0
2018-11-28T04:52:05.574Z,0
2018-11-28T04:53:05.571Z,0
2018-11-28T04:54:05.303Z,0
2018-11-28T04:55:05.063Z,0
2018-11-28T04:56:05.224Z,0
2018-11-28T04:57:05.201Z,0
2018-11-28T04:58:05.453Z,0
2018-11-28T04:59:05.164Z,0
2018-11-28T05:00:05.274Z,0
2018-11-28T05:01:05.357Z,0
2018-11-28T05:02:05.387Z,0
2018-11-28T05:03:05.304Z,0
2018-11-28T05:04:05.042Z,0
2018-11-28T05:05:05.015Z,0
2018-11-28T05:06:05.246Z,0
2018-11-28T05:07:04.444Z,0
2018-11-28T05:08:04.991Z,0
2018-11-28T05:09:04.924Z,0
2018-11-28T05:10:04.972Z,0
2018-11-28T05:11:04.870Z,0
2018-11-28T05:12:05.091Z,0
2018-11-28T05:13:04.822Z,0
2018-11-28T05:14:04.533Z,0
2018-11-28T05:15:04.517Z,0
2018-11-28T05:16:04.684Z,0
2018-11-28T05:17:04.973Z,0
2018-11-28T05:18:04.722Z,0
2018-11-28T05:19:04.668Z,0
2018-11-28T05:20:04.899Z,0
2018-11-28T05:21:04.877Z,0
2018-11-28T05:22:04.597Z,0
2018-11-28T05:23:04.593Z,0
2018-11-28T05:24:04.557Z,0
2018-11-28T05:25:04.529Z,0
2018-11-28T05:26:04.500Z,0
2018-11-28T05:27:04.478Z,0
2018-11-28T05:28:04.717Z,0
2018-11-28T05:29:04.181Z,0
2018-11-28T05:30:04.182Z,0
2018-11-28T05:31:04.378Z,0
2018-11-28T05:32:04.129Z,0
2018-11-28T05:33:03.827Z,0
2018-11-28T05:34:04.063Z,0
2018-11-28T05:35:04.294Z,0
2018-11-28T05:36:04.287Z,0
2018-11-28T05:37:04.239Z,0
2018-11-28T05:38:04.219Z,0
2018-11-28T05:39:04.453Z,0
2018-11-28T05:40:03.921Z,0
2018-11-28T05:41:04.147Z,0
2018-11-28T05:42:03.872Z,0
2018-11-28T05:43:04.353Z,0
2018-11-28T05:44:03.827Z,0
2018-11-28T05:45:03.800Z,0
2018-11-28T05:46:04.298Z,0
2018-11-28T05:47:04.011Z,0
2018-11-28T05:48:04.032Z,0
2018-11-28T05:49:04.213Z,0
2018-11-28T05:50:03.940Z,0
2018-11-28T05:51:03.928Z,0
2018-11-28T05:52:04.155Z,0
2018-11-28T05:53:03.617Z,0
2018-11-28T05:54:03.873Z,0
2018-11-28T05:55:04.054Z,0
2018-11-28T05:56:03.790Z,0
2018-11-28T05:57:03.517Z,0
2018-11-28T05:58:03.559Z,0
2018-11-28T05:59:03.983Z,0
2018-11-28T06:00:04.283Z,0
2018-11-28T06:01:03.428Z,0
2018-11-28T06:02:03.654Z,0
2018-11-28T06:03:03.630Z,0
2018-11-28T06:04:03.359Z,0
2018-11-28T06:05:03.598Z,0
2018-11-28T06:06:03.576Z,0
2018-11-28T06:07:03.288Z,0
2018-11-28T06:08:03.540Z,0
2018-11-28T06:09:03.249Z,0
2018-11-28T06:10:03.497Z,0
2018-11-28T06:11:03.451Z,0
2018-11-28T06:12:03.160Z,0
2018-11-28T06:13:03.651Z,0
2018-11-28T06:14:03.389Z,0
2018-11-28T06:15:03.095Z,0
2018-11-28T06:16:03.633Z,0
2018-11-28T06:17:03.051Z,0
2018-11-28T06:18:03.288Z,0
2018-11-28T06:19:03.327Z,0
2018-11-28T06:20:02.990Z,0
2018-11-28T06:21:02.952Z,0
2018-11-28T06:22:03.438Z,0
2018-11-28T06:23:03.162Z,0
2018-11-28T06:24:02.913Z,0
2018-11-28T06:25:03.108Z,0
2018-11-28T06:26:03.393Z,0
2018-11-28T06:27:03.329Z,0
2018-11-28T06:28:03.045Z,0
2018-11-28T06:29:02.769Z,0
2018-11-28T06:30:03.026Z,0
2018-11-28T06:31:03.244Z,0
2018-11-28T06:32:02.949Z,0
2018-11-28T06:33:03.225Z,0
2018-11-28T06:34:02.914Z,0
2018-11-28T06:35:02.887Z,0
2018-11-28T06:36:03.172Z,4
2018-11-28T06:37:02.579Z,0
2018-11-28T06:38:02.884Z,0
2018-11-28T06:39:03.040Z,4
2018-11-28T06:40:02.776Z,4
2018-11-28T06:41:02.995Z,4
2018-11-28T06:42:02.733Z,4
2018-11-28T06:43:02.445Z,4
2018-11-28T06:44:02.668Z,8
2018-11-28T06:45:02.907Z,8
2018-11-28T06:46:02.639Z,8
2018-11-28T06:47:02.852Z,8
2018-11-28T06:48:02.582Z,8
2018-11-28T06:49:02.564Z,8
2018-11-28T06:50:02.549Z,12
2018-11-28T06:51:02.522Z,12
2018-11-28T06:52:02.752Z,16
2018-11-28T06:53:02.467Z,20
2018-11-28T06:54:02.427Z,24
2018-11-28T06:55:02.682Z,24
2018-11-28T06:56:02.648Z,32
2018-11-28T06:57:02.620Z,32
2018-11-28T06:58:02.606Z,40
2018-11-28T06:59:02.641Z,44
2018-11-28T07:00:02.367Z,48
2018-11-28T07:01:02.033Z,56
2018-11-28T07:02:01.996Z,64
2018-11-28T07:03:02.225Z,76
2018-11-28T07:04:01.691Z,84
2018-11-28T07:05:01.927Z,92
2018-11-28T07:06:02.151Z,104
2018-11-28T07:07:02.134Z,112
2018-11-28T07:08:02.129Z,124
2018-11-28T07:09:02.095Z,136
2018-11-28T07:10:01.557Z,148
2018-11-28T07:11:02.295Z,156
2018-11-28T07:12:02.017Z,164
2018-11-28T07:13:01.994Z,172
2018-11-28T07:14:02.231Z,176
2018-11-28T07:15:01.691Z,188
2018-11-28T07:16:02.379Z,196
2018-11-28T07:17:02.159Z,208
2018-11-28T07:18:01.874Z,224
2018-11-28T07:19:02.105Z,240
2018-11-28T07:20:01.835Z,256
2018-11-28T07:21:02.062Z,276
2018-11-28T07:22:01.793Z,300
2018-11-28T07:23:01.791Z,328
2018-11-28T07:24:01.793Z,356
2018-11-28T07:25:02.018Z,388
2018-11-28T07:26:01.941Z,408
2018-11-28T07:27:01.923Z,432
2018-11-28T07:28:01.649Z,448
2018-11-28T07:29:01.625Z,464
2018-11-28T07:30:01.368Z,484
2018-11-28T07:31:01.081Z,504
2018-11-28T07:32:01.397Z,516
2018-11-28T07:33:01.542Z,524
2018-11-28T07:34:01.503Z,536
2018-11-28T07:35:01.766Z,560
2018-11-28T07:36:01.720Z,580
2018-11-28T07:37:01.186Z,596
2018-11-28T07:38:01.416Z,612
2018-11-28T07:39:01.157Z,628
2018-11-28T07:40:01.368Z,636
2018-11-28T07:41:01.350Z,644
2018-11-28T07:42:01.322Z,652
2018-11-28T07:43:01.586Z,676
2018-11-28T07:44:01.330Z,684
2018-11-28T07:45:01.255Z,692
2018-11-28T07:46:00.975Z,692
2018-11-28T07:47:00.952Z,700
2018-11-28T07:48:01.183Z,708
2018-11-28T07:49:00.654Z,720
2018-11-28T07:50:01.143Z,736
2018-11-28T07:51:01.374Z,736
2018-11-28T07:52:00.840Z,752
2018-11-28T07:53:01.082Z,772
2018-11-28T07:54:01.383Z,800
2018-11-28T07:55:01.028Z,844
2018-11-28T07:56:01.000Z,888
2018-11-28T07:57:01.008Z,928
2018-11-28T07:58:00.965Z,960
2018-11-28T07:59:00.431Z,988
2018-11-28T08:00:01.162Z,1028
2018-11-28T08:01:00.887Z,1072
2018-11-28T08:02:00.657Z,1120
2018-11-28T08:03:00.846Z,1176
2018-11-28T08:04:00.606Z,1228
2018-11-28T08:05:00.796Z,1280
2018-11-28T08:06:01.026Z,1328
2018-11-28T08:07:00.543Z,1384
2018-11-28T08:08:00.478Z,1440
2018-11-28T08:09:00.712Z,1500
2018-11-28T08:10:00.956Z,1544
2018-11-28T08:11:00.674Z,1560
2018-11-28T08:12:00.393Z,1572
2018-11-28T08:13:00.363Z,1596
2018-11-28T08:14:00.650Z,1620
2018-11-28T08:15:00.567Z,1640
2018-11-28T08:16:00.544Z,1672
2018-11-28T08:17:00.522Z,1720
2018-11-28T08:18:00.507Z,1764
2018-11-28T08:19:00.728Z,1808
2018-11-28T08:20:00.721Z,1848
2018-11-28T08:21:00.429Z,1880
2018-11-28T08:21:59.905Z,1920
2018-11-28T08:23:00.650Z,1980
2018-11-28T08:24:00.389Z,2060
2018-11-28T08:25:00.353Z,2124
2018-11-28T08:26:00.407Z,2148
2018-11-28T08:27:00.303Z,2148
2018-11-28T08:28:00.712Z,2164
2018-11-28T08:29:00.307Z,2180
2018-11-28T08:29:59.975Z,2188
2018-11-28T08:30:59.699Z,2180
2018-11-28T08:32:00.242Z,2160
2018-11-28T08:33:00.482Z,2160
2018-11-28T08:34:00.183Z,2180
2018-11-28T08:34:59.885Z,2224
2018-11-28T08:36:00.116Z,2292
2018-11-28T08:37:00.342Z,2360
2018-11-28T08:38:00.060Z,2436
2018-11-28T08:39:00.032Z,2504
2018-11-28T08:39:59.763Z,2564
2018-11-28T08:41:00.065Z,2616
2018-11-28T08:41:59.713Z,2644
2018-11-28T08:42:59.956Z,2660
2018-11-28T08:43:59.915Z,2672
2018-11-28T08:45:00.297Z,2704
2018-11-28T08:45:59.626Z,2748
2018-11-28T08:47:00.106Z,2808
2018-11-28T08:47:59.609Z,2848
2018-11-28T08:48:59.578Z,2864
2018-11-28T08:49:59.544Z,2876
2018-11-28T08:50:59.515Z,2932
2018-11-28T08:51:59.539Z,3024
2018-11-28T08:52:59.220Z,3152
2018-11-28T08:53:59.970Z,3292
2018-11-28T08:54:59.679Z,3436
2018-11-28T08:55:59.466Z,3528
2018-11-28T08:56:59.516Z,3580
2018-11-28T08:57:59.457Z,3632
2018-11-28T08:58:59.148Z,3708
2018-11-28T08:59:59.571Z,3796
2018-11-28T09:00:59.567Z,3856
2018-11-28T09:01:59.281Z,3908
2018-11-28T09:02:59.770Z,3956
2018-11-28T09:03:59.491Z,3996
2018-11-28T09:04:59.721Z,4032
2018-11-28T09:05:59.458Z,4092
2018-11-28T09:06:59.425Z,4104
2018-11-28T09:07:59.157Z,4032
2018-11-28T09:08:59.390Z,3952
2018-11-28T09:09:59.367Z,3876
2018-11-28T09:10:59.091Z,3808
2018-11-28T09:11:59.066Z,3764
2018-11-28T09:13:03.878Z,3752
2018-11-28T09:14:04.232Z,3768
2018-11-28T09:14:59.499Z,3800
2018-11-28T09:15:59.232Z,3836
2018-11-28T09:16:59.169Z,3884
2018-11-28T09:17:59.213Z,3940
2018-11-28T09:18:59.467Z,4012
2018-11-28T09:19:59.179Z,4048
2018-11-28T09:20:58.875Z,4084
2018-11-28T09:21:59.358Z,4112
2018-11-28T09:22:59.096Z,4136
2018-11-28T09:23:59.066Z,4164
2018-11-28T09:24:59.299Z,4204
2018-11-28T09:25:59.026Z,4292
2018-11-28T09:26:59.008Z,4348
2018-11-28T09:27:58.981Z,4372
2018-11-28T09:28:58.963Z,4452
2018-11-28T09:29:59.191Z,4516
2018-11-28T09:30:58.927Z,4560
2018-11-28T09:31:58.385Z,4604
2018-11-28T09:32:58.885Z,4632
2018-11-28T09:33:58.854Z,4684
2018-11-28T09:34:59.095Z,4700
2018-11-28T09:35:58.880Z,4720
2018-11-28T09:36:58.805Z,4712
2018-11-28T09:37:58.520Z,4708
2018-11-28T09:38:58.751Z,4756
2018-11-28T09:39:58.730Z,4832
2018-11-28T09:40:58.984Z,4940
2018-11-28T09:41:58.743Z,5008
2018-11-28T09:42:58.683Z,5124
2018-11-28T09:43:58.911Z,5204
2018-11-28T09:44:58.696Z,5308
2018-11-28T09:45:58.615Z,5492
2018-11-28T09:46:58.382Z,5448
2018-11-28T09:47:58.570Z,5468
2018-11-28T09:48:58.554Z,5444
2018-11-28T09:49:58.536Z,5368
2018-11-28T09:50:58.766Z,5312
2018-11-28T09:51:58.505Z,5256
2018-11-28T09:52:58.470Z,5252
2018-11-28T09:53:58.494Z,5276
2018-11-28T09:54:58.435Z,5316
2018-11-28T09:55:58.161Z,5324
2018-11-28T09:56:58.660Z,5224
2018-11-28T09:57:57.879Z,5160
2018-11-28T09:58:58.610Z,5140
2018-11-28T09:59:58.078Z,5088
2018-11-28T10:00:58.315Z,5040
2018-11-28T10:01:58.055Z,5096
2018-11-28T10:02:58.275Z,5228
2018-11-28T10:03:58.014Z,5260
2018-11-28T10:05:02.645Z,5316
2018-11-28T10:05:57.967Z,5304
2018-11-28T10:06:58.198Z,5276
2018-11-28T10:07:58.185Z,5264
2018-11-28T10:08:57.903Z,5344
2018-11-28T10:09:58.388Z,5488
2018-11-28T10:10:57.667Z,5708
2018-11-28T10:11:57.845Z,5836
2018-11-28T10:12:58.093Z,5840
2018-11-28T10:13:58.060Z,5832
2018-11-28T10:14:58.053Z,5688
2018-11-28T10:15:58.277Z,5476
2018-11-28T10:17:00.183Z,5256
2018-11-28T10:17:57.997Z,5128
2018-11-28T10:18:57.973Z,5036
2018-11-28T10:19:57.985Z,4944
2018-11-28T10:20:57.927Z,4904
2018-11-28T10:21:58.168Z,4800
2018-11-28T10:22:57.942Z,4756
2018-11-28T10:23:57.869Z,4728
2018-11-28T10:24:57.851Z,4736
2018-11-28T10:25:58.111Z,4756
2018-11-28T10:26:58.070Z,4792
2018-11-28T10:27:58.113Z,4828
2018-11-28T10:28:58.027Z,4856
2018-11-28T10:29:58.018Z,4916
2018-11-28T10:30:57.274Z,4996
2018-11-28T10:31:58.000Z,5096
2018-11-28T10:32:57.461Z,5188
2018-11-28T10:33:57.672Z,5288
2018-11-28T10:34:57.908Z,5388
2018-11-28T10:35:57.893Z,5484
2018-11-28T10:36:57.626Z,5552
2018-11-28T10:37:57.863Z,5592
2018-11-28T10:38:57.420Z,5604
2018-11-28T10:39:57.836Z,5524
2018-11-28T10:40:57.546Z,5404
2018-11-28T10:41:57.867Z,5228
2018-11-28T10:42:57.838Z,5028
2018-11-28T10:43:57.483Z,4832
2018-11-28T10:44:57.731Z,4716
2018-11-28T10:45:57.704Z,4644
2018-11-28T10:46:57.179Z,4532
2018-11-28T10:47:57.408Z,4404
2018-11-28T10:48:57.392Z,4248
2018-11-28T10:49:56.867Z,4152
2018-11-28T10:50:57.356Z,4132
2018-11-28T10:51:57.632Z,4228
2018-11-28T10:52:57.325Z,4428
2018-11-28T10:53:57.674Z,4672
2018-11-28T10:54:57.023Z,4884
2018-11-28T10:55:57.052Z,5128
2018-11-28T10:56:57.855Z,5272
2018-11-28T10:57:57.233Z,5332
2018-11-28T10:58:57.467Z,5444
2018-11-28T10:59:56.924Z,5632
2018-11-28T11:00:57.178Z,5848
2018-11-28T11:01:56.908Z,5932
2018-11-28T11:02:57.432Z,5984
2018-11-28T11:03:57.115Z,5996
2018-11-28T11:04:57.171Z,5792
2018-11-28T11:05:57.328Z,5684
2018-11-28T11:06:57.304Z,5532
2018-11-28T11:07:56.857Z,5476
2018-11-28T11:08:57.039Z,5464
2018-11-28T11:09:56.993Z,5392
2018-11-28T11:10:57.279Z,5476
2018-11-28T11:11:56.704Z,5580
2018-11-28T11:12:56.736Z,5748
2018-11-28T11:13:56.668Z,5892
2018-11-28T11:14:56.907Z,6104
2018-11-28T11:15:56.890Z,6284
2018-11-28T11:16:57.345Z,6460
2018-11-28T11:18:01.962Z,6672
2018-11-28T11:18:57.076Z,6856
2018-11-28T11:19:57.063Z,6840
2018-11-28T11:20:56.803Z,6744
2018-11-28T11:21:57.032Z,6644
2018-11-28T11:22:57.013Z,6560
2018-11-28T11:23:56.477Z,6540
2018-11-28T11:24:56.966Z,6500
2018-11-28T11:25:57.016Z,6416
2018-11-28T11:26:56.417Z,6304
2018-11-28T11:27:56.910Z,6232
2018-11-28T11:28:56.380Z,6176
2018-11-28T11:29:56.883Z,6096
2018-11-28T11:30:56.870Z,6016
2018-11-28T11:31:56.857Z,5956
2018-11-28T11:32:56.765Z,5940
2018-11-28T11:33:56.608Z,5932
2018-11-28T11:34:56.216Z,5936
2018-11-28T11:35:56.514Z,5916
2018-11-28T11:36:56.755Z,5884
2018-11-28T11:37:56.476Z,5824
2018-11-28T11:38:56.221Z,5748
2018-11-28T11:39:57.316Z,5540
2018-11-28T11:40:56.682Z,5284
2018-11-28T11:41:56.673Z,5044
2018-11-28T11:42:56.405Z,4800
2018-11-28T11:43:56.398Z,4540
2018-11-28T11:44:56.654Z,4296
2018-11-28T11:45:56.603Z,4220
2018-11-28T11:46:56.144Z,4324
2018-11-28T11:47:56.563Z,4368
2018-11-28T11:48:56.547Z,4304
2018-11-28T11:49:56.017Z,4148
2018-11-28T11:50:55.994Z,4176
2018-11-28T11:51:56.235Z,4168
2018-11-28T11:52:56.265Z,4140
2018-11-28T11:53:55.936Z,4052
2018-11-28T11:54:56.420Z,3948
2018-11-28T11:55:56.146Z,3884
2018-11-28T11:56:56.137Z,3836
2018-11-28T11:57:56.380Z,3744
2018-11-28T11:58:56.350Z,3708
2018-11-28T11:59:56.082Z,3816
2018-11-28T12:00:55.871Z,4032
2018-11-28T12:02:01.677Z,4340
2018-11-28T12:02:55.772Z,4540
2018-11-28T12:03:56.290Z,4792
2018-11-28T12:04:56.238Z,5148
2018-11-28T12:05:56.023Z,5236
2018-11-28T12:06:56.266Z,5100
2018-11-28T12:07:56.183Z,5200
2018-11-28T12:08:55.933Z,5472
2018-11-28T12:09:55.644Z,5448
2018-11-28T12:10:55.624Z,5208
2018-11-28T12:11:55.865Z,4892
2018-11-28T12:12:58.725Z,4584
2018-11-28T12:13:56.091Z,4288
2018-11-28T12:14:56.075Z,4052
2018-11-28T12:15:55.348Z,3840
2018-11-28T12:16:55.777Z,3648
2018-11-28T12:17:55.507Z,3512
2018-11-28T12:18:55.521Z,3436
2018-11-28T12:19:55.973Z,3472
2018-11-28T12:20:55.479Z,3520
2018-11-28T12:21:55.745Z,3492
2018-11-28T12:22:55.687Z,3444
2018-11-28T12:23:55.715Z,3408
2018-11-28T12:24:55.620Z,3296
2018-11-28T12:25:55.619Z,3244
2018-11-28T12:26:55.337Z,3260
2018-11-28T12:27:55.343Z,3152
2018-11-28T12:28:55.204Z,3000
2018-11-28T12:29:55.811Z,2972
2018-11-28T12:30:55.321Z,3040
2018-11-28T12:31:55.551Z,3120
2018-11-28T12:32:55.544Z,3264
2018-11-28T12:33:55.609Z,3300
2018-11-28T12:34:57.897Z,3124
2018-11-28T12:35:55.896Z,3024
2018-11-28T12:36:55.189Z,2892
2018-11-28T12:37:55.587Z,2748
2018-11-28T12:38:54.991Z,2688
2018-11-28T12:39:55.508Z,2656
2018-11-28T12:40:55.535Z,2616
2018-11-28T12:41:55.653Z,2648
2018-11-28T12:42:55.689Z,2764
2018-11-28T12:43:55.496Z,2900
2018-11-28T12:44:55.047Z,3000
2018-11-28T12:45:55.311Z,3088
2018-11-28T12:46:55.276Z,3164
2018-11-28T12:47:55.116Z,3212
2018-11-28T12:48:55.551Z,3156
2018-11-28T12:49:55.607Z,3048
2018-11-28T12:50:55.229Z,3012
2018-11-28T12:51:55.214Z,3092
2018-11-28T12:52:55.141Z,3224
2018-11-28T12:53:54.946Z,3388
2018-11-28T12:54:55.192Z,3636
2018-11-28T12:55:54.868Z,3864
2018-11-28T12:56:55.143Z,4004
2018-11-28T12:57:55.098Z,4024
2018-11-28T12:58:55.413Z,3920
2018-11-28T12:59:55.404Z,3776
2018-11-28T13:00:55.143Z,3688
2018-11-28T13:01:54.791Z,3668
2018-11-28T13:02:54.779Z,3620
2018-11-28T13:03:55.097Z,3532
2018-11-28T13:04:59.733Z,3412
2018-11-28T13:05:54.691Z,3296
2018-11-28T13:06:55.257Z,3216
2018-11-28T13:07:55.218Z,3176
2018-11-28T13:08:55.084Z,3200
2018-11-28T13:09:55.144Z,3312
2018-11-28T13:10:54.916Z,3524
2018-11-28T13:11:59.814Z,3788
2018-11-28T13:12:54.665Z,3996
2018-11-28T13:13:54.863Z,4152
2018-11-28T13:14:54.626Z,4260
2018-11-28T13:15:55.137Z,4400
2018-11-28T13:16:54.951Z,4564
2018-11-28T13:17:54.699Z,4684
2018-11-28T13:18:54.692Z,4740
2018-11-28T13:19:58.898Z,4796
2018-11-28T13:20:55.034Z,4864
2018-11-28T13:21:54.447Z,4900
2018-11-28T13:22:54.426Z,4868
2018-11-28T13:23:54.695Z,4856
2018-11-28T13:24:54.657Z,4760
2018-11-28T13:25:54.336Z,4624
2018-11-28T13:26:54.370Z,4512
2018-11-28T13:27:54.902Z,4432
2018-11-28T13:28:54.560Z,4364
2018-11-28T13:29:54.801Z,4232
2018-11-28T13:30:55.154Z,4144
2018-11-28T13:31:54.369Z,4016
2018-11-28T13:32:54.754Z,3928
2018-11-28T13:33:54.284Z,3992
2018-11-28T13:34:54.688Z,4016
2018-11-28T13:35:54.195Z,3876
2018-11-28T13:36:54.692Z,3724
2018-11-28T13:37:54.222Z,3564
2018-11-28T13:38:53.986Z,3344
2018-11-28T13:39:54.163Z,3160
2018-11-28T13:40:54.620Z,3048
2018-11-28T13:41:54.393Z,3040
2018-11-28T13:42:54.687Z,3152
2018-11-28T13:43:54.290Z,3200
2018-11-28T13:44:54.563Z,3168
2018-11-28T13:45:54.016Z,3208
2018-11-28T13:46:54.549Z,3252
2018-11-28T13:47:54.591Z,3328
2018-11-28T13:48:54.238Z,3440
2018-11-28T13:49:54.425Z,3556
2018-11-28T13:50:54.386Z,3592
2018-11-28T13:51:54.156Z,3492
2018-11-28T13:52:54.095Z,3324
2018-11-28T13:53:53.645Z,3112
2018-11-28T13:56:29.745Z,2768
2018-11-28T13:57:17.196Z,2544
2018-11-28T13:58:12.897Z,2372
2018-11-28T13:59:13.189Z,2216
2018-11-28T14:00:13.382Z,2160
2018-11-28T14:01:13.358Z,2244
2018-11-28T14:02:12.696Z,2444
2018-11-28T14:03:12.686Z,2640